createdAt,value
2018-02-07T00:00:06.741Z,36.67
2018-02-07T00:02:34.205Z,36.90
2018-02-07T00:05:01.678Z,37.00
2018-02-07T00:07:29.134Z,41.67
2018-02-07T00:09:56.623Z,40.37
2018-02-07T00:12:24.083Z,39.27
2018-02-07T00:14:51.562Z,43.37
2018-02-07T00:17:19.032Z,41.47
2018-02-07T00:19:46.506Z,41.10
2018-02-07T00:22:14.682Z,39.30
2018-02-07T00:24:42.173Z,38.57
2018-02-07T00:27:09.634Z,38.30
2018-02-07T00:29:37.114Z,36.80
2018-02-07T00:32:04.570Z,38.53
2018-02-07T00:34:32.042Z,40.27
2018-02-07T00:36:59.515Z,39.17
2018-02-07T00:39:27.011Z,40.13
2018-02-07T00:41:54.474Z,38.93
2018-02-07T00:44:21.930Z,36.37
2018-02-07T00:46:49.407Z,33.63
2018-02-07T00:49:16.863Z,32.67
2018-02-07T00:51:44.487Z,33.83
2018-02-07T00:54:11.958Z,35.67
2018-02-07T00:56:39.434Z,35.43
2018-02-07T00:59:06.890Z,33.87
2018-02-07T01:01:34.371Z,32.77
2018-02-07T01:04:01.827Z,33.17
2018-02-07T01:06:29.308Z,32.40
2018-02-07T01:08:56.772Z,31.97
2018-02-07T01:11:24.251Z,33.77
2018-02-07T01:13:51.715Z,32.27
2018-02-07T01:16:19.191Z,33.80
2018-02-07T01:18:46.654Z,33.17
2018-02-07T01:21:14.138Z,35.17
2018-02-07T01:23:41.595Z,33.50
2018-02-07T01:26:09.083Z,34.17
2018-02-07T01:28:36.546Z,34.80
2018-02-07T01:31:04.032Z,35.00
2018-02-07T01:33:31.495Z,33.30
2018-02-07T01:35:58.969Z,34.20
2018-02-07T01:38:26.439Z,33.87
2018-02-07T01:40:53.914Z,33.93
2018-02-07T01:43:21.384Z,34.93
2018-02-07T01:45:48.866Z,33.17
2018-02-07T01:48:16.328Z,31.87
2018-02-07T01:50:43.810Z,33.10
2018-02-07T01:53:11.281Z,33.90
2018-02-07T01:55:38.768Z,32.67
2018-02-07T01:58:06.234Z,34.70
2018-02-07T02:00:33.749Z,35.33
2018-02-07T02:03:01.208Z,33.17
2018-02-07T02:05:28.662Z,32.53
2018-02-07T02:07:56.142Z,34.07
2018-02-07T02:10:23.615Z,34.20
2018-02-07T02:12:51.103Z,32.60
2018-02-07T02:15:18.640Z,33.07
2018-02-07T02:17:46.120Z,32.20
2018-02-07T02:20:13.579Z,30.07
2018-02-07T02:22:41.054Z,30.60
2018-02-07T02:25:08.522Z,30.43
2018-02-07T02:27:36.002Z,32.77
2018-02-07T02:30:03.463Z,30.60
2018-02-07T02:32:30.951Z,28.77
2018-02-07T02:34:58.413Z,31.13
2018-02-07T02:37:25.891Z,28.73
2018-02-07T02:39:53.355Z,30.60
2018-02-07T02:42:20.835Z,31.13
2018-02-07T02:44:48.307Z,31.50
2018-02-07T02:47:15.791Z,30.03
2018-02-07T02:49:43.259Z,29.50
2018-02-07T02:52:10.752Z,29.83
2018-02-07T02:54:38.211Z,29.03
2018-02-07T02:57:05.699Z,29.03
2018-02-07T02:59:33.163Z,28.37
2018-02-07T03:02:00.646Z,29.07
2018-02-07T03:04:28.110Z,29.23
2018-02-07T03:06:55.592Z,28.47
2018-02-07T03:09:23.054Z,28.83
2018-02-07T03:11:50.555Z,28.20
2018-02-07T03:14:18.018Z,27.67
2018-02-07T03:16:45.495Z,25.33
2018-02-07T03:19:12.957Z,26.23
2018-02-07T03:21:40.439Z,26.33
2018-02-07T03:24:07.941Z,26.40
2018-02-07T03:26:35.408Z,27.20
2018-02-07T03:29:02.888Z,27.37
2018-02-07T03:31:30.352Z,26.83
2018-02-07T03:33:57.938Z,27.63
2018-02-07T03:36:25.403Z,27.20
2018-02-07T03:38:52.894Z,27.47
2018-02-07T03:41:20.362Z,26.43
2018-02-07T03:43:47.850Z,27.23
2018-02-07T03:46:15.307Z,26.83
2018-02-07T03:48:42.788Z,27.30
2018-02-07T03:51:10.247Z,25.47
2018-02-07T03:53:37.722Z,27.90
2018-02-07T03:56:05.178Z,29.03
2018-02-07T03:58:32.668Z,29.57
2018-02-07T04:01:00.131Z,27.77
2018-02-07T04:03:27.619Z,29.40
2018-02-07T04:05:55.085Z,30.27
2018-02-07T04:08:22.572Z,31.73
2018-02-07T04:10:50.037Z,28.57
2018-02-07T04:13:17.523Z,30.23
2018-02-07T04:15:44.988Z,30.63
2018-02-07T04:18:12.463Z,30.37
2018-02-07T04:20:39.919Z,31.73
2018-02-07T04:23:07.395Z,29.47
2018-02-07T04:25:34.867Z,29.57
2018-02-07T04:28:02.419Z,30.20
2018-02-07T04:30:29.879Z,29.67
2018-02-07T04:32:57.361Z,29.53
2018-02-07T04:35:24.830Z,29.57
2018-02-07T04:37:52.310Z,29.33
2018-02-07T04:40:19.770Z,27.93
2018-02-07T04:42:47.250Z,28.93
2018-02-07T04:45:14.730Z,30.23
2018-02-07T04:47:42.195Z,28.67
2018-02-07T04:50:09.679Z,30.77
2018-02-07T04:52:37.143Z,29.67
2018-02-07T04:55:04.626Z,32.17
2018-02-07T04:57:32.086Z,29.50
2018-02-07T04:59:59.570Z,31.00
2018-02-07T05:02:27.026Z,30.20
2018-02-07T05:04:54.520Z,31.40
2018-02-07T05:07:21.990Z,31.67
2018-02-07T05:09:49.471Z,29.37
2018-02-07T05:12:16.935Z,30.13
2018-02-07T05:14:44.418Z,31.83
2018-02-07T05:17:11.883Z,30.13
2018-02-07T05:19:39.377Z,30.43
2018-02-07T05:22:06.846Z,30.73
2018-02-07T05:24:34.327Z,27.70
2018-02-07T05:27:01.795Z,31.47
2018-02-07T05:29:29.270Z,30.27
2018-02-07T05:31:56.740Z,31.97
2018-02-07T05:34:24.227Z,29.00
2018-02-07T05:36:51.687Z,31.50
2018-02-07T05:39:19.177Z,31.03
2018-02-07T05:41:46.645Z,29.93
2018-02-07T05:44:14.127Z,31.63
2018-02-07T05:46:41.586Z,30.00
2018-02-07T05:49:09.063Z,29.47
2018-02-07T05:51:36.519Z,28.70
2018-02-07T05:54:04.009Z,28.40
2018-02-07T05:56:31.466Z,29.23
2018-02-07T05:58:58.947Z,29.47
2018-02-07T06:01:26.410Z,30.73
2018-02-07T06:03:53.899Z,29.53
2018-02-07T06:06:21.367Z,30.67
2018-02-07T06:08:48.846Z,30.17
2018-02-07T06:11:16.325Z,32.23
2018-02-07T06:13:43.808Z,32.40
2018-02-07T06:16:11.294Z,30.73
2018-02-07T06:18:38.763Z,31.40
2018-02-07T06:21:06.243Z,32.10
2018-02-07T06:23:33.699Z,30.67
2018-02-07T06:26:01.215Z,30.83
2018-02-07T06:28:28.678Z,33.47
2018-02-07T06:30:56.158Z,30.93
2018-02-07T06:33:23.623Z,29.40
2018-02-07T06:35:51.102Z,29.80
2018-02-07T06:38:18.590Z,32.30
2018-02-07T06:40:46.062Z,30.37
2018-02-07T06:43:13.527Z,34.70
2018-02-07T06:45:41.011Z,30.80
2018-02-07T06:48:08.474Z,33.37
2018-02-07T06:50:35.950Z,32.03
2018-02-07T06:53:03.415Z,36.27
2018-02-07T06:55:30.899Z,32.50
2018-02-07T06:57:58.454Z,33.10
2018-02-07T07:00:25.943Z,31.63
2018-02-07T07:02:53.418Z,32.53
2018-02-07T07:05:20.894Z,30.93
2018-02-07T07:07:48.358Z,31.33
2018-02-07T07:10:15.844Z,30.27
2018-02-07T07:12:43.313Z,32.67
2018-02-07T07:15:10.815Z,31.17
2018-02-07T07:17:38.270Z,31.77
2018-02-07T07:20:05.752Z,30.03
2018-02-07T07:22:33.215Z,30.93
2018-02-07T07:25:00.703Z,32.20
2018-02-07T07:27:28.174Z,32.13
2018-02-07T07:29:55.660Z,29.70
2018-02-07T07:32:23.118Z,31.53
2018-02-07T07:34:50.578Z,28.30
2018-02-07T07:37:18.063Z,32.57
2018-02-07T07:39:45.536Z,29.77
2018-02-07T07:42:13.019Z,31.37
2018-02-07T07:44:40.478Z,31.43
2018-02-07T07:47:07.958Z,29.03
2018-02-07T07:49:35.417Z,30.93
2018-02-07T07:52:02.911Z,30.43
2018-02-07T07:54:30.382Z,31.33
2018-02-07T07:56:57.875Z,29.70
2018-02-07T07:59:25.329Z,32.23
2018-02-07T08:01:52.806Z,32.37
2018-02-07T08:04:20.275Z,32.37
2018-02-07T08:06:47.837Z,31.87
2018-02-07T08:09:15.295Z,30.70
2018-02-07T08:11:42.788Z,28.00
2018-02-07T08:14:10.252Z,31.70
2018-02-07T08:16:37.739Z,31.20
2018-02-07T08:19:05.207Z,32.40
2018-02-07T08:21:32.819Z,36.87
2018-02-07T08:24:00.291Z,30.97
2018-02-07T08:26:27.775Z,33.70
2018-02-07T08:28:55.251Z,34.33
2018-02-07T08:31:22.751Z,30.00
2018-02-07T08:33:50.210Z,32.77
2018-02-07T08:36:17.699Z,33.47
2018-02-07T08:38:45.166Z,31.00
2018-02-07T08:41:12.646Z,29.33
2018-02-07T08:43:40.102Z,30.77
2018-02-07T08:46:07.589Z,32.20
2018-02-07T08:48:35.051Z,32.10
2018-02-07T08:51:02.540Z,25.80
2018-02-07T08:53:30.005Z,34.00
2018-02-07T08:55:57.486Z,33.23
2018-02-07T08:58:24.963Z,26.33
2018-02-07T09:00:52.430Z,30.47
2018-02-07T09:03:19.915Z,29.33
2018-02-07T09:05:47.387Z,30.97
2018-02-07T09:08:14.879Z,31.33
2018-02-07T09:10:42.352Z,30.07
2018-02-07T09:13:09.832Z,27.13
2018-02-07T09:15:37.301Z,28.23
2018-02-07T09:18:04.829Z,28.10
2018-02-07T09:20:32.279Z,28.87
2018-02-07T09:22:59.762Z,30.37
2018-02-07T09:25:27.242Z,29.43
2018-02-07T09:27:54.746Z,27.77
2018-02-07T09:30:22.250Z,27.27
2018-02-07T09:32:49.744Z,29.60
2018-02-07T09:35:17.222Z,31.00
2018-02-07T09:37:44.706Z,28.10
2018-02-07T09:40:12.179Z,27.13
2018-02-07T09:42:39.663Z,25.13
2018-02-07T09:45:07.123Z,25.77
2018-02-07T09:47:34.615Z,29.63
2018-02-07T09:50:02.083Z,30.03
2018-02-07T09:52:29.575Z,31.07
2018-02-07T09:54:57.063Z,21.30
2018-02-07T09:57:24.551Z,29.77
2018-02-07T09:59:52.010Z,21.87
2018-02-07T10:02:19.502Z,30.67
2018-02-07T10:04:46.967Z,26.93
2018-02-07T10:07:14.458Z,28.90
2018-02-07T10:09:41.927Z,30.27
2018-02-07T10:12:09.414Z,31.47
2018-02-07T10:14:36.874Z,25.93
2018-02-07T10:17:04.383Z,31.10
2018-02-07T10:19:31.850Z,30.50
2018-02-07T10:21:59.326Z,32.50
2018-02-07T10:24:26.862Z,29.63
2018-02-07T10:26:54.340Z,32.67
2018-02-07T10:29:21.828Z,25.43
2018-02-07T10:31:49.295Z,32.73
2018-02-07T10:34:16.784Z,31.80
2018-02-07T10:36:44.255Z,30.43
2018-02-07T10:39:11.743Z,31.23
2018-02-07T10:41:39.212Z,32.20
2018-02-07T10:44:06.703Z,28.77
2018-02-07T10:46:34.172Z,30.30
2018-02-07T10:49:01.649Z,31.10
2018-02-07T10:51:29.110Z,32.63
2018-02-07T10:53:56.595Z,32.03
2018-02-07T10:56:24.057Z,34.93
2018-02-07T10:58:51.543Z,37.13
2018-02-07T11:01:19.008Z,35.87
2018-02-07T11:03:46.487Z,37.70
2018-02-07T11:06:13.955Z,37.43
2018-02-07T11:08:41.435Z,37.10
2018-02-07T11:11:08.899Z,32.33
2018-02-07T11:13:36.393Z,35.47
2018-02-07T11:16:03.867Z,30.37
2018-02-07T11:18:31.355Z,28.47
2018-02-07T11:20:58.823Z,31.97
2018-02-07T11:23:26.306Z,34.07
2018-02-07T11:25:53.775Z,35.33
2018-02-07T11:28:21.262Z,32.80
2018-02-07T11:30:48.732Z,37.57
2018-02-07T11:33:16.218Z,33.63
2018-02-07T11:35:43.687Z,34.53
2018-02-07T11:38:11.259Z,34.07
2018-02-07T11:40:38.714Z,32.33
2018-02-07T11:43:06.194Z,34.83
2018-02-07T11:45:33.659Z,32.07
2018-02-07T11:48:01.138Z,35.00
2018-02-07T11:50:28.601Z,36.27
2018-02-07T11:52:56.087Z,28.33
2018-02-07T11:55:23.561Z,32.27
2018-02-07T11:57:51.031Z,34.00
2018-02-07T12:00:18.639Z,34.50
2018-02-07T12:02:46.105Z,32.63
2018-02-07T12:05:13.591Z,33.30
2018-02-07T12:07:41.055Z,38.43
2018-02-07T12:10:08.536Z,38.97
2018-02-07T12:12:35.998Z,39.60
2018-02-07T12:15:03.492Z,39.60
2018-02-07T12:17:30.955Z,31.47
2018-02-07T12:19:58.434Z,41.80
2018-02-07T12:22:25.896Z,47.13
2018-02-07T12:24:53.375Z,38.30
2018-02-07T12:27:20.839Z,35.97
2018-02-07T12:29:48.330Z,53.33
2018-02-07T12:32:15.791Z,49.30
2018-02-07T12:34:43.267Z,44.93
2018-02-07T12:37:10.731Z,50.27
2018-02-07T12:39:38.211Z,43.93
2018-02-07T12:42:05.671Z,46.20
2018-02-07T12:44:33.154Z,45.47
2018-02-07T12:47:00.675Z,46.60
2018-02-07T12:49:28.164Z,43.30
2018-02-07T12:51:55.631Z,47.83
2018-02-07T12:54:23.119Z,40.20
2018-02-07T12:56:50.582Z,45.13
2018-02-07T12:59:18.062Z,45.13
2018-02-07T13:01:45.522Z,47.80
2018-02-07T13:04:13.015Z,47.47
2018-02-07T13:06:41.325Z,48.20
2018-02-07T13:09:08.806Z,46.70
2018-02-07T13:11:36.267Z,48.83
2018-02-07T13:14:03.792Z,48.73
2018-02-07T13:16:31.255Z,53.73
2018-02-07T13:18:58.759Z,51.00
2018-02-07T13:21:26.246Z,48.30
2018-02-07T13:23:53.702Z,48.70
2018-02-07T13:26:21.183Z,49.83
2018-02-07T13:28:48.704Z,51.70
2018-02-07T13:31:16.178Z,45.30
2018-02-07T13:33:43.643Z,47.27
2018-02-07T13:36:11.119Z,47.23
2018-02-07T13:38:38.600Z,43.07
2018-02-07T13:41:06.079Z,43.47
2018-02-07T13:43:33.548Z,34.13
2018-02-07T13:46:01.030Z,43.47
2018-02-07T13:48:28.507Z,38.43
2018-02-07T13:50:55.990Z,41.00
2018-02-07T13:53:23.474Z,46.90
2018-02-07T13:55:50.959Z,44.20
2018-02-07T13:58:18.427Z,41.27
2018-02-07T14:00:54.354Z,47.30
2018-02-07T14:03:21.820Z,46.90
2018-02-07T14:05:49.334Z,54.10
2018-02-07T14:08:16.819Z,46.07
2018-02-07T14:10:44.305Z,46.10
2018-02-07T14:13:11.761Z,47.57
2018-02-07T14:15:39.324Z,45.73
2018-02-07T14:18:06.788Z,46.50
2018-02-07T14:20:34.336Z,44.77
2018-02-07T14:23:01.791Z,42.53
2018-02-07T14:25:29.312Z,48.07
2018-02-07T14:27:57.642Z,49.73
2018-02-07T14:30:25.127Z,47.73
2018-02-07T14:32:52.588Z,46.20
2018-02-07T14:35:20.072Z,47.90
2018-02-07T14:37:47.547Z,49.97
2018-02-07T14:40:15.022Z,48.87
2018-02-07T14:42:42.482Z,50.17
2018-02-07T14:45:10.014Z,43.30
2018-02-07T14:47:37.497Z,49.97
2018-02-07T14:50:04.968Z,51.60
2018-02-07T14:52:32.462Z,52.23
2018-02-07T14:54:59.927Z,50.13
2018-02-07T14:57:29.160Z,49.53
2018-02-07T14:59:56.619Z,47.37
2018-02-07T15:02:24.104Z,47.13
2018-02-07T15:04:51.582Z,51.87
2018-02-07T15:07:19.059Z,52.07
2018-02-07T15:09:46.559Z,51.47
2018-02-07T15:12:14.039Z,48.53
2018-02-07T15:14:41.518Z,50.03
2018-02-07T15:17:09.007Z,49.83
2018-02-07T15:19:36.471Z,47.70
2018-02-07T15:22:03.954Z,46.60
2018-02-07T15:24:31.411Z,50.20
2018-02-07T15:26:58.898Z,50.77
2018-02-07T15:29:26.358Z,52.40
2018-02-07T15:31:53.834Z,52.60
2018-02-07T15:34:21.411Z,51.73
2018-02-07T15:36:48.982Z,45.93
2018-02-07T15:39:16.443Z,50.23
2018-02-07T15:41:43.934Z,47.93
2018-02-07T15:44:11.402Z,51.67
2018-02-07T15:46:38.895Z,50.13
2018-02-07T15:49:06.362Z,51.93
2018-02-07T15:51:33.842Z,53.97
2018-02-07T15:54:01.302Z,47.97
2018-02-07T15:56:28.783Z,51.50
2018-02-07T15:58:56.251Z,45.73
2018-02-07T16:01:23.748Z,51.20
2018-02-07T16:03:51.211Z,49.57
2018-02-07T16:06:18.698Z,50.63
2018-02-07T16:08:46.163Z,51.60
2018-02-07T16:11:13.645Z,53.57
2018-02-07T16:13:41.106Z,49.67
2018-02-07T16:16:08.587Z,48.50
2018-02-07T16:18:36.091Z,49.60
2018-02-07T16:21:03.568Z,50.10
2018-02-07T16:23:31.083Z,52.30
2018-02-07T16:25:58.550Z,49.40
2018-02-07T16:28:26.045Z,52.73
2018-02-07T16:30:53.518Z,49.90
2018-02-07T16:33:21.080Z,48.47
2018-02-07T16:35:48.563Z,50.77
2018-02-07T16:38:16.043Z,50.80
2018-02-07T16:40:43.603Z,52.57
2018-02-07T16:43:11.088Z,53.30
2018-02-07T16:45:38.578Z,50.27
2018-02-07T16:48:06.056Z,51.00
2018-02-07T16:50:33.559Z,52.43
2018-02-07T16:53:01.042Z,52.43
2018-02-07T16:55:28.594Z,50.93
2018-02-07T16:57:56.122Z,48.23
2018-02-07T17:00:23.720Z,50.10
2018-02-07T17:02:51.226Z,47.57
2018-02-07T17:05:18.691Z,49.73
2018-02-07T17:07:46.222Z,49.77
2018-02-07T17:10:13.715Z,49.93
2018-02-07T17:12:41.261Z,51.80
2018-02-07T17:15:08.723Z,47.70
2018-02-07T17:17:36.222Z,47.37
2018-02-07T17:20:03.887Z,48.40
2018-02-07T17:22:31.374Z,48.97
2018-02-07T17:24:58.842Z,50.07
2018-02-07T17:27:26.378Z,49.87
2018-02-07T17:29:53.844Z,48.53
2018-02-07T17:32:21.331Z,54.03
2018-02-07T17:34:48.795Z,53.60
2018-02-07T17:37:16.292Z,52.63
2018-02-07T17:39:43.771Z,50.00
2018-02-07T17:42:11.264Z,48.50
2018-02-07T17:44:38.726Z,48.27
2018-02-07T17:47:06.193Z,44.93
2018-02-07T17:49:33.850Z,53.80
2018-02-07T17:52:01.327Z,85.80
2018-02-07T17:54:28.826Z,62.63
2018-02-07T17:56:56.299Z,63.77
2018-02-07T17:59:23.798Z,57.70
2018-02-07T18:01:51.262Z,53.33
2018-02-07T18:04:18.748Z,50.77
2018-02-07T18:06:46.214Z,50.20
2018-02-07T18:09:13.699Z,50.70
2018-02-07T18:11:41.181Z,48.63
2018-02-07T18:14:08.675Z,47.67
2018-02-07T18:16:36.199Z,48.90
2018-02-07T18:19:03.682Z,51.37
2018-02-07T18:21:31.142Z,52.10
2018-02-07T18:23:58.642Z,51.70
2018-02-07T18:26:26.104Z,52.93
2018-02-07T18:28:53.607Z,56.83
2018-02-07T18:31:21.070Z,66.40
2018-02-07T18:33:48.560Z,56.17
2018-02-07T18:36:16.023Z,52.67
2018-02-07T18:38:43.511Z,46.07
2018-02-07T18:41:10.974Z,49.17
2018-02-07T18:43:38.467Z,49.10
2018-02-07T18:46:05.938Z,51.47
2018-02-07T18:48:33.428Z,45.97
2018-02-07T18:51:00.886Z,46.53
2018-02-07T18:53:28.366Z,45.53
2018-02-07T18:55:55.828Z,53.73
2018-02-07T18:58:23.318Z,44.73
2018-02-07T19:00:50.784Z,43.97
2018-02-07T19:03:18.272Z,41.10
2018-02-07T19:05:45.738Z,42.03
2018-02-07T19:08:13.226Z,42.10
2018-02-07T19:10:40.699Z,40.83
2018-02-07T19:13:08.175Z,37.50
2018-02-07T19:15:35.855Z,37.87
2018-02-07T19:18:03.319Z,34.97
2018-02-07T19:20:30.819Z,33.83
2018-02-07T19:22:58.284Z,34.77
2018-02-07T19:25:25.775Z,32.97
2018-02-07T19:27:53.286Z,31.70
2018-02-07T19:30:20.778Z,31.63
2018-02-07T19:32:48.251Z,35.90
2018-02-07T19:35:15.778Z,41.67
2018-02-07T19:37:43.277Z,36.93
2018-02-07T19:40:10.765Z,39.10
2018-02-07T19:42:38.226Z,36.43
2018-02-07T19:45:05.922Z,33.67
2018-02-07T19:47:33.390Z,30.53
2018-02-07T19:50:00.874Z,26.97
2018-02-07T19:52:28.339Z,32.33
2018-02-07T19:54:55.822Z,30.00
2018-02-07T19:57:23.291Z,29.53
2018-02-07T19:59:50.778Z,27.20
2018-02-07T20:02:18.242Z,28.63
2018-02-07T20:04:45.722Z,29.93
2018-02-07T20:07:13.195Z,30.77
2018-02-07T20:09:40.683Z,28.27
2018-02-07T20:12:08.155Z,27.93
2018-02-07T20:14:35.686Z,27.30
2018-02-07T20:17:03.130Z,26.83
2018-02-07T20:19:30.623Z,26.37
2018-02-07T20:21:58.093Z,28.53
2018-02-07T20:24:25.597Z,29.83
2018-02-07T20:26:53.085Z,29.37
2018-02-07T20:29:20.570Z,30.00
2018-02-07T20:31:48.115Z,27.13
2018-02-07T20:34:15.651Z,28.63
2018-02-07T20:36:43.115Z,29.27
2018-02-07T20:39:10.593Z,29.80
2018-02-07T20:41:38.078Z,30.70
2018-02-07T20:44:05.556Z,30.27
2018-02-07T20:46:33.047Z,29.37
2018-02-07T20:49:00.522Z,30.37
2018-02-07T20:51:28.028Z,32.40
2018-02-07T20:53:55.550Z,29.27
2018-02-07T20:56:23.032Z,30.87
2018-02-07T20:58:50.518Z,34.80
2018-02-07T21:01:18.038Z,33.10
2018-02-07T21:03:45.519Z,34.60
2018-02-07T21:06:13.003Z,30.73
2018-02-07T21:08:40.461Z,27.97
2018-02-07T21:11:07.946Z,28.57
2018-02-07T21:13:35.418Z,28.53
2018-02-07T21:16:02.952Z,28.03
2018-02-07T21:18:30.398Z,25.43
2018-02-07T21:20:57.882Z,28.63
2018-02-07T21:23:25.355Z,26.37
2018-02-07T21:25:52.924Z,26.00
2018-02-07T21:28:20.397Z,26.70
2018-02-07T21:30:47.890Z,27.13
2018-02-07T21:33:15.365Z,29.77
2018-02-07T21:35:42.854Z,25.73
2018-02-07T21:38:10.335Z,26.43
2018-02-07T21:40:37.825Z,30.57
2018-02-07T21:43:05.286Z,31.83
2018-02-07T21:45:32.770Z,29.17
2018-02-07T21:48:00.314Z,27.17
2018-02-07T21:50:27.855Z,28.13
2018-02-07T21:52:55.323Z,28.47
2018-02-07T21:55:22.837Z,28.37
2018-02-07T21:57:50.319Z,27.87
2018-02-07T22:00:17.815Z,26.57
2018-02-07T22:02:45.279Z,26.23
2018-02-07T22:05:12.743Z,27.87
2018-02-07T22:07:40.240Z,28.37
2018-02-07T22:10:07.715Z,24.43
2018-02-07T22:12:35.203Z,25.47
2018-02-07T22:15:02.669Z,25.33
2018-02-07T22:17:30.154Z,26.97
2018-02-07T22:19:57.618Z,28.23
2018-02-07T22:22:25.103Z,23.30
2018-02-07T22:24:52.572Z,25.30
2018-02-07T22:27:20.064Z,25.50
2018-02-07T22:29:47.530Z,25.43
2018-02-07T22:32:15.023Z,24.70
2018-02-07T22:34:42.598Z,27.87
2018-02-07T22:37:10.086Z,27.73
2018-02-07T22:39:37.547Z,27.70
2018-02-07T22:42:05.043Z,28.50
2018-02-07T22:44:32.507Z,27.83
2018-02-07T22:46:59.994Z,25.00
2018-02-07T22:49:27.466Z,26.33
2018-02-07T22:51:54.955Z,26.10
2018-02-07T22:54:22.424Z,26.67
2018-02-07T22:56:49.910Z,27.07
2018-02-07T22:59:17.418Z,26.17
2018-02-07T23:01:44.903Z,24.93
2018-02-07T23:04:12.371Z,27.33
2018-02-07T23:06:39.847Z,27.03
2018-02-07T23:09:07.338Z,27.23
2018-02-07T23:11:34.823Z,28.47
2018-02-07T23:14:02.326Z,27.97
2018-02-07T23:16:29.803Z,27.13
2018-02-07T23:18:57.274Z,28.53
2018-02-07T23:21:24.758Z,31.33
2018-02-07T23:23:52.229Z,30.27
2018-02-07T23:26:19.718Z,30.30
2018-02-07T23:28:47.191Z,32.27
2018-02-07T23:31:14.678Z,28.60
2018-02-07T23:33:42.142Z,27.87
2018-02-07T23:36:09.615Z,31.53
2018-02-07T23:38:37.104Z,29.00
2018-02-07T23:41:04.568Z,29.13
2018-02-07T23:43:32.046Z,29.93
2018-02-07T23:45:59.520Z,30.53
2018-02-07T23:48:27.006Z,27.03
2018-02-07T23:50:54.481Z,29.93
2018-02-07T23:53:21.971Z,27.90
2018-02-07T23:55:49.436Z,28.17
2018-02-07T23:58:16.923Z,28.67
